Wetterdaten: Woche 08.01.18 - 14.01.18 (KW2)
Datum Zeit Temperatur Luftfeuchte Luftdruck Niederschlag Windrichtung Sonnenschein Solar Wind
08.01.2018 00:00 3,3 C 97 % 1018,5 hPa 0,0 l/m O-NO 0,00 h 0 W/m 12,9 km/h (3 Bft)
08.01.2018 01:00 3,6 C 97 % 1018,4 hPa 0,0 l/m O 0,00 h 0 W/m 12,8 km/h (3 Bft)
08.01.2018 02:00 3,9 C 97 % 1018,7 hPa 0,0 l/m O-NO 0,00 h 0 W/m 13,4 km/h (3 Bft)
08.01.2018 03:00 4,1 C 97 % 1018,9 hPa 0,0 l/m O 0,00 h 0 W/m 9,8 km/h (2 Bft)
08.01.2018 04:00 4,2 C 97 % 1019,1 hPa 0,0 l/m O-NO 0,00 h 0 W/m 13,3 km/h (3 Bft)
08.01.2018 05:00 4,2 C 97 % 1019,3 hPa 0,0 l/m O-NO 0,00 h 0 W/m 11,9 km/h (2 Bft)
08.01.2018 06:00 4,2 C 97 % 1019,3 hPa 0,0 l/m O 0,00 h 0 W/m 13,8 km/h (3 Bft)
08.01.2018 07:00 4,2 C 96 % 1019,2 hPa 0,0 l/m O 0,00 h 0 W/m 13,4 km/h (3 Bft)
08.01.2018 08:00 4,2 C 96 % 1019,1 hPa 0,0 l/m O-NO 0,00 h 9 W/m 15,3 km/h (3 Bft)
08.01.2018 09:00 4,2 C 96 % 1019,2 hPa 0,0 l/m O-NO 0,00 h 31 W/m 13,0 km/h (3 Bft)
08.01.2018 10:00 4,4 C 96 % 1019,2 hPa 0,0 l/m O-NO 0,08 h 74 W/m 13,3 km/h (3 Bft)
08.01.2018 11:00 5,4 C 94 % 1018,8 hPa 0,0 l/m O-NO 0,92 h 233 W/m 15,8 km/h (3 Bft)
08.01.2018 12:00 5,4 C 92 % 1018,1 hPa 0,0 l/m O 0,08 h 130 W/m 16,6 km/h (3 Bft)
08.01.2018 13:00 5,5 C 92 % 1017,3 hPa 0,0 l/m NO 0,25 h 148 W/m 18,0 km/h (3 Bft)
08.01.2018 14:00 5,3 C 93 % 1016,9 hPa 0,0 l/m NO 0,00 h 83 W/m 17,7 km/h (3 Bft)
08.01.2018 15:00 5,1 C 93 % 1016,8 hPa 0,0 l/m O-NO 0,00 h 44 W/m 16,9 km/h (3 Bft)
08.01.2018 16:00 4,8 C 93 % 1017,0 hPa 0,0 l/m O-NO 0,00 h 9 W/m 15,3 km/h (3 Bft)
08.01.2018 17:00 4,7 C 94 % 1017,1 hPa 0,0 l/m O-NO 0,00 h 0 W/m 15,2 km/h (3 Bft)
08.01.2018 18:00 4,6 C 94 % 1016,9 hPa 0,0 l/m O-NO 0,00 h 0 W/m 14,9 km/h (3 Bft)
08.01.2018 19:00 4,4 C 94 % 1016,7 hPa 0,0 l/m O-NO 0,00 h 0 W/m 15,6 km/h (3 Bft)
08.01.2018 20:00 4,2 C 94 % 1016,5 hPa 0,0 l/m O-NO 0,00 h 0 W/m 16,2 km/h (3 Bft)
08.01.2018 21:00 4,1 C 95 % 1016,1 hPa 0,0 l/m O-NO 0,00 h 0 W/m 12,5 km/h (3 Bft)
08.01.2018 22:00 3,9 C 95 % 1015,3 hPa 0,0 l/m O-NO 0,00 h 0 W/m 14,1 km/h (3 Bft)
08.01.2018 23:00 3,7 C 95 % 1014,7 hPa 0,0 l/m O-NO 0,00 h 0 W/m 11,5 km/h (2 Bft)
09.01.2018 00:00 3,4 C 96 % 1013,6 hPa 0,0 l/m O-NO 0,00 h 0 W/m 13,8 km/h (3 Bft)
09.01.2018 01:00 3,3 C 96 % 1012,8 hPa 0,0 l/m NO 0,00 h 0 W/m 17,2 km/h (3 Bft)
09.01.2018 02:00 3,3 C 96 % 1012,2 hPa 0,0 l/m NO 0,00 h 0 W/m 13,7 km/h (3 Bft)
09.01.2018 03:00 3,2 C 96 % 1011,7 hPa 0,0 l/m NO 0,00 h 0 W/m 12,1 km/h (2 Bft)
09.01.2018 04:00 3,1 C 96 % 1011,8 hPa 0,0 l/m NO 0,00 h 0 W/m 9,4 km/h (2 Bft)
09.01.2018 05:00 2,9 C 96 % 1012,6 hPa 0,0 l/m W 0,00 h 0 W/m 7,1 km/h (2 Bft)
09.01.2018 06:00 2,9 C 96 % 1012,6 hPa 0,0 l/m W-NW 0,00 h 0 W/m 2,3 km/h (1 Bft)
09.01.2018 07:00 2,7 C 96 % 1011,9 hPa 0,0 l/m N 0,00 h 0 W/m 0,0 km/h (0 Bft)
09.01.2018 08:00 2,6 C 96 % 1011,8 hPa 0,0 l/m N 0,25 h 29 W/m 0,8 km/h (0 Bft)
09.01.2018 09:00 2,8 C 97 % 1011,5 hPa 0,0 l/m NW 1,00 h 124 W/m 4,5 km/h (1 Bft)
09.01.2018 10:00 3,7 C 97 % 1011,9 hPa 0,0 l/m NW 1,00 h 237 W/m 2,0 km/h (1 Bft)
09.01.2018 11:00 6,0 C 94 % 1011,6 hPa 0,0 l/m N 0,83 h 276 W/m 0,5 km/h (0 Bft)
09.01.2018 12:00 9,1 C 81 % 1010,6 hPa 0,0 l/m SW 0,58 h 219 W/m 7,4 km/h (2 Bft)
09.01.2018 13:00 9,6 C 76 % 1010,0 hPa 0,0 l/m SW 0,08 h 150 W/m 11,4 km/h (2 Bft)
09.01.2018 14:00 10,7 C 61 % 1009,6 hPa 0,0 l/m SW 0,00 h 105 W/m 20,4 km/h (4 Bft)
09.01.2018 15:00 8,9 C 77 % 1009,6 hPa 0,0 l/m N-NW 0,00 h 60 W/m 10,8 km/h (2 Bft)
09.01.2018 16:00 7,1 C 87 % 1010,1 hPa 0,0 l/m N-NW 0,08 h 18 W/m 3,3 km/h (1 Bft)
09.01.2018 17:00 6,5 C 88 % 1011,4 hPa 0,0 l/m N 0,00 h 0 W/m 0,0 km/h (0 Bft)
09.01.2018 18:00 5,6 C 88 % 1011,9 hPa 0,0 l/m N 0,00 h 0 W/m 0,0 km/h (0 Bft)
09.01.2018 19:00 4,9 C 90 % 1012,1 hPa 0,0 l/m N 0,00 h 0 W/m 0,0 km/h (0 Bft)
09.01.2018 20:00 4,2 C 91 % 1012,5 hPa 0,0 l/m N 0,00 h 0 W/m 0,0 km/h (0 Bft)
09.01.2018 21:00 3,4 C 92 % 1012,9 hPa 0,0 l/m N 0,00 h 0 W/m 0,3 km/h (0 Bft)
09.01.2018 22:00 2,8 C 93 % 1013,1 hPa 0,0 l/m N 0,00 h 0 W/m 0,0 km/h (0 Bft)
09.01.2018 23:00 2,0 C 93 % 1013,1 hPa 0,0 l/m N 0,00 h 0 W/m 0,0 km/h (0 Bft)
10.01.2018 00:00 1,3 C 94 % 1012,9 hPa 0,0 l/m N 0,00 h 0 W/m 0,0 km/h (0 Bft)
10.01.2018 01:00 0,8 C 94 % 1012,7 hPa 0,0 l/m N 0,00 h 0 W/m 0,0 km/h (0 Bft)
10.01.2018 02:00 0,4 C 94 % 1012,6 hPa 0,0 l/m N 0,00 h 0 W/m 0,5 km/h (0 Bft)
10.01.2018 03:00 0,4 C 95 % 1012,3 hPa 0,0 l/m N 0,00 h 0 W/m 0,0 km/h (0 Bft)
10.01.2018 04:00 0,4 C 96 % 1012,6 hPa 0,0 l/m N-NW 0,00 h 0 W/m 0,9 km/h (0 Bft)
10.01.2018 05:00 0,3 C 96 % 1012,9 hPa 0,0 l/m N 0,00 h 0 W/m 0,0 km/h (0 Bft)
10.01.2018 06:00 0,2 C 96 % 1013,1 hPa 0,0 l/m N 0,00 h 0 W/m 0,0 km/h (0 Bft)
10.01.2018 07:00 0,5 C 97 % 1013,3 hPa 0,0 l/m N 0,00 h 0 W/m 0,0 km/h (0 Bft)
10.01.2018 08:00 0,8 C 97 % 1013,2 hPa 0,0 l/m N 0,25 h 24 W/m 0,0 km/h (0 Bft)
10.01.2018 09:00 0,9 C 97 % 1013,0 hPa 0,0 l/m N 0,92 h 111 W/m 0,0 km/h (0 Bft)
10.01.2018 10:00 2,6 C 98 % 1012,8 hPa 0,2 l/m N 1,00 h 238 W/m 0,0 km/h (0 Bft)
10.01.2018 11:00 5,1 C 94 % 1012,1 hPa 0,0 l/m N-NW 1,00 h 293 W/m 1,3 km/h (1 Bft)
10.01.2018 12:00 7,2 C 86 % 1011,3 hPa 0,0 l/m N-NW 1,00 h 309 W/m 1,9 km/h (1 Bft)
10.01.2018 13:00 8,3 C 80 % 1010,4 hPa 0,0 l/m N 1,00 h 264 W/m 0,0 km/h (0 Bft)
10.01.2018 14:00 8,3 C 80 % 1010,1 hPa 0,0 l/m N 0,25 h 121 W/m 0,1 km/h (0 Bft)
10.01.2018 15:00 7,6 C 82 % 1010,2 hPa 0,0 l/m N 0,17 h 77 W/m 0,0 km/h (0 Bft)
10.01.2018 16:00 6,3 C 88 % 1010,5 hPa 0,0 l/m N 0,25 h 22 W/m 0,3 km/h (0 Bft)
10.01.2018 17:00 5,4 C 91 % 1010,8 hPa 0,0 l/m N 0,00 h 0 W/m 0,0 km/h (0 Bft)
10.01.2018 18:00 4,9 C 93 % 1011,1 hPa 0,0 l/m N-NW 0,00 h 0 W/m 0,8 km/h (0 Bft)
10.01.2018 19:00 4,5 C 93 % 1011,6 hPa 0,0 l/m N-NW 0,00 h 0 W/m 1,1 km/h (0 Bft)
10.01.2018 20:00 4,1 C 93 % 1011,6 hPa 0,0 l/m N 0,00 h 0 W/m 0,0 km/h (0 Bft)
10.01.2018 21:00 3,7 C 94 % 1011,5 hPa 0,0 l/m N 0,00 h 0 W/m 0,0 km/h (0 Bft)
10.01.2018 22:00 3,4 C 94 % 1011,5 hPa 0,0 l/m N-NW 0,00 h 0 W/m 1,2 km/h (1 Bft)
10.01.2018 23:00 2,7 C 94 % 1011,5 hPa 0,0 l/m N 0,00 h 0 W/m 0,0 km/h (0 Bft)
11.01.2018 00:00 2,5 C 95 % 1011,5 hPa 0,0 l/m N 0,00 h 0 W/m 0,0 km/h (0 Bft)
11.01.2018 01:00 2,0 C 95 % 1011,4 hPa 0,0 l/m N 0,00 h 0 W/m 0,0 km/h (0 Bft)
11.01.2018 02:00 1,7 C 95 % 1011,4 hPa 0,0 l/m N 0,00 h 0 W/m 0,0 km/h (0 Bft)
11.01.2018 03:00 1,1 C 95 % 1011,4 hPa 0,0 l/m N 0,00 h 0 W/m 0,0 km/h (0 Bft)
11.01.2018 04:00 0,4 C 96 % 1011,5 hPa 0,0 l/m N 0,00 h 0 W/m 0,0 km/h (0 Bft)
11.01.2018 05:00 -0,3 C 96 % 1011,6 hPa 0,0 l/m N 0,00 h 0 W/m 0,0 km/h (0 Bft)
11.01.2018 06:00 -0,4 C 96 % 1012,0 hPa 0,0 l/m N 0,00 h 0 W/m 0,0 km/h (0 Bft)
11.01.2018 07:00 -0,3 C 97 % 1012,4 hPa 0,0 l/m N 0,00 h 0 W/m 0,0 km/h (0 Bft)
11.01.2018 08:00 -0,0 C 97 % 1013,0 hPa 0,0 l/m N 0,00 h 16 W/m 0,0 km/h (0 Bft)
11.01.2018 09:00 0,5 C 97 % 1013,4 hPa 0,0 l/m N 0,00 h 77 W/m 0,0 km/h (0 Bft)
11.01.2018 10:00 1,5 C 98 % 1013,7 hPa 0,0 l/m N-NW 0,75 h 179 W/m 4,3 km/h (1 Bft)
11.01.2018 11:00 1,9 C 98 % 1013,8 hPa 0,0 l/m N-NW 0,58 h 188 W/m 4,9 km/h (1 Bft)
11.01.2018 12:00 2,7 C 97 % 1013,7 hPa 0,0 l/m N-NW 1,00 h 235 W/m 0,8 km/h (0 Bft)
11.01.2018 13:00 5,0 C 91 % 1013,7 hPa 0,0 l/m N 1,00 h 262 W/m 0,3 km/h (0 Bft)
11.01.2018 14:00 6,4 C 83 % 1014,1 hPa 0,0 l/m N-NW 0,92 h 171 W/m 0,5 km/h (0 Bft)
11.01.2018 15:00 6,3 C 84 % 1014,5 hPa 0,0 l/m N 0,00 h 83 W/m 0,8 km/h (0 Bft)
11.01.2018 16:00 5,5 C 87 % 1015,3 hPa 0,0 l/m NO 0,50 h 28 W/m 5,4 km/h (1 Bft)
11.01.2018 17:00 3,2 C 91 % 1016,2 hPa 0,0 l/m NO 0,00 h 0 W/m 2,3 km/h (1 Bft)
11.01.2018 18:00 2,3 C 92 % 1016,9 hPa 0,0 l/m NO 0,00 h 0 W/m 3,9 km/h (1 Bft)
11.01.2018 19:00 1,9 C 94 % 1017,5 hPa 0,0 l/m NO 0,00 h 0 W/m 6,0 km/h (2 Bft)
11.01.2018 20:00 2,0 C 96 % 1017,9 hPa 0,0 l/m NO 0,00 h 0 W/m 4,8 km/h (1 Bft)
11.01.2018 21:00 2,2 C 96 % 1018,3 hPa 0,0 l/m NO 0,00 h 0 W/m 2,0 km/h (1 Bft)
11.01.2018 22:00 2,1 C 97 % 1018,6 hPa 0,0 l/m NO 0,00 h 0 W/m 3,2 km/h (1 Bft)
11.01.2018 23:00 2,0 C 97 % 1019,1 hPa 0,0 l/m NO 0,00 h 0 W/m 6,8 km/h (2 Bft)
12.01.2018 00:00 1,9 C 97 % 1019,3 hPa 0,0 l/m NO 0,00 h 0 W/m 6,3 km/h (2 Bft)
12.01.2018 01:00 1,8 C 98 % 1019,7 hPa 0,0 l/m NO 0,00 h 0 W/m 6,6 km/h (2 Bft)
12.01.2018 02:00 1,6 C 98 % 1020,3 hPa 0,0 l/m NO 0,00 h 0 W/m 4,9 km/h (1 Bft)
12.01.2018 03:00 1,6 C 98 % 1020,4 hPa 0,0 l/m NO 0,00 h 0 W/m 5,6 km/h (1 Bft)
12.01.2018 04:00 1,6 C 98 % 1020,6 hPa 0,0 l/m O-NO 0,00 h 0 W/m 6,4 km/h (2 Bft)
12.01.2018 05:00 1,4 C 98 % 1021,0 hPa 0,0 l/m O 0,00 h 0 W/m 9,4 km/h (2 Bft)
12.01.2018 06:00 1,3 C 98 % 1021,4 hPa 0,0 l/m O 0,00 h 0 W/m 5,5 km/h (1 Bft)
12.01.2018 07:00 1,5 C 98 % 1021,7 hPa 0,0 l/m O 0,00 h 0 W/m 9,3 km/h (2 Bft)
12.01.2018 08:00 1,5 C 98 % 1022,3 hPa 0,0 l/m O 0,00 h 9 W/m 7,1 km/h (2 Bft)
12.01.2018 09:00 1,6 C 98 % 1022,5 hPa 0,0 l/m O 0,00 h 30 W/m 5,2 km/h (1 Bft)
12.01.2018 10:00 1,7 C 97 % 1023,0 hPa 0,0 l/m O 0,00 h 49 W/m 8,0 km/h (2 Bft)
12.01.2018 11:00 2,0 C 95 % 1023,0 hPa 0,0 l/m O 0,00 h 86 W/m 10,9 km/h (2 Bft)
12.01.2018 12:00 2,3 C 93 % 1022,9 hPa 0,0 l/m O 0,00 h 69 W/m 9,5 km/h (2 Bft)
12.01.2018 13:00 2,4 C 91 % 1022,9 hPa 0,0 l/m O-NO 0,00 h 63 W/m 11,2 km/h (2 Bft)
12.01.2018 14:00 2,2 C 91 % 1023,0 hPa 0,0 l/m O-NO 0,00 h 39 W/m 9,1 km/h (2 Bft)
12.01.2018 15:00 2,1 C 91 % 1023,4 hPa 0,0 l/m O-NO 0,00 h 31 W/m 6,4 km/h (2 Bft)
12.01.2018 16:00 2,3 C 90 % 1023,6 hPa 0,0 l/m O-NO 0,00 h 10 W/m 8,0 km/h (2 Bft)
12.01.2018 17:00 2,3 C 90 % 1023,9 hPa 0,0 l/m O-NO 0,00 h 0 W/m 8,0 km/h (2 Bft)
12.01.2018 18:00 2,4 C 89 % 1023,9 hPa 0,0 l/m O-NO 0,00 h 0 W/m 5,5 km/h (1 Bft)
12.01.2018 19:00 2,4 C 90 % 1023,9 hPa 0,0 l/m O-NO 0,00 h 0 W/m 4,1 km/h (1 Bft)
12.01.2018 20:00 2,3 C 91 % 1024,1 hPa 0,0 l/m O-NO 0,00 h 0 W/m 5,2 km/h (1 Bft)
12.01.2018 21:00 2,4 C 91 % 1024,0 hPa 0,0 l/m O 0,00 h 0 W/m 11,5 km/h (2 Bft)
12.01.2018 22:00 2,3 C 89 % 1024,2 hPa 0,0 l/m O 0,00 h 0 W/m 15,0 km/h (3 Bft)
12.01.2018 23:00 2,3 C 87 % 1024,0 hPa 0,0 l/m O 0,00 h 0 W/m 14,8 km/h (3 Bft)
13.01.2018 00:00 2,3 C 88 % 1023,7 hPa 0,0 l/m O 0,00 h 0 W/m 11,8 km/h (2 Bft)
13.01.2018 01:00 2,2 C 88 % 1023,6 hPa 0,0 l/m O-NO 0,00 h 0 W/m 12,1 km/h (2 Bft)
13.01.2018 02:00 1,9 C 89 % 1023,5 hPa 0,0 l/m O 0,00 h 0 W/m 12,5 km/h (3 Bft)
13.01.2018 03:00 1,9 C 88 % 1023,5 hPa 0,0 l/m O 0,00 h 0 W/m 11,8 km/h (2 Bft)
13.01.2018 04:00 1,8 C 88 % 1023,5 hPa 0,0 l/m O-SO 0,00 h 0 W/m 10,3 km/h (2 Bft)
13.01.2018 05:00 1,7 C 87 % 1023,4 hPa 0,0 l/m O 0,00 h 0 W/m 13,7 km/h (3 Bft)
13.01.2018 06:00 1,7 C 88 % 1023,1 hPa 0,0 l/m O-SO 0,00 h 0 W/m 2,5 km/h (1 Bft)
13.01.2018 07:00 1,7 C 89 % 1022,9 hPa 0,0 l/m O-SO 0,00 h 0 W/m 2,8 km/h (1 Bft)
13.01.2018 08:00 1,8 C 90 % 1022,9 hPa 0,0 l/m O-SO 0,00 h 7 W/m 4,9 km/h (1 Bft)
13.01.2018 09:00 1,9 C 88 % 1022,9 hPa 0,0 l/m O-SO 0,00 h 17 W/m 11,4 km/h (2 Bft)
13.01.2018 10:00 2,1 C 86 % 1022,8 hPa 0,0 l/m O-SO 0,00 h 32 W/m 7,6 km/h (2 Bft)
13.01.2018 11:00 2,3 C 86 % 1022,5 hPa 0,0 l/m O-SO 0,00 h 49 W/m 10,9 km/h (2 Bft)
13.01.2018 12:00 2,4 C 84 % 1021,8 hPa 0,0 l/m SO 0,00 h 76 W/m 10,7 km/h (2 Bft)
13.01.2018 13:00 2,7 C 83 % 1021,2 hPa 0,0 l/m O-SO 0,00 h 69 W/m 8,4 km/h (2 Bft)
13.01.2018 14:00 2,8 C 82 % 1021,0 hPa 0,0 l/m O-SO 0,00 h 49 W/m 10,2 km/h (2 Bft)
13.01.2018 15:00 2,5 C 83 % 1021,1 hPa 0,0 l/m O 0,00 h 25 W/m 8,4 km/h (2 Bft)
13.01.2018 16:00 2,3 C 83 % 1020,8 hPa 0,0 l/m O 0,00 h 9 W/m 7,9 km/h (2 Bft)
13.01.2018 17:00 2,1 C 83 % 1020,7 hPa 0,0 l/m O 0,00 h 0 W/m 3,5 km/h (1 Bft)
13.01.2018 18:00 2,0 C 83 % 1020,6 hPa 0,0 l/m O 0,00 h 0 W/m 3,9 km/h (1 Bft)
13.01.2018 19:00 1,7 C 85 % 1020,3 hPa 0,0 l/m N 0,00 h 0 W/m 0,3 km/h (0 Bft)
13.01.2018 20:00 1,4 C 87 % 1020,3 hPa 0,0 l/m N 0,00 h 0 W/m 0,1 km/h (0 Bft)
13.01.2018 21:00 1,3 C 88 % 1020,3 hPa 0,0 l/m N 0,00 h 0 W/m 0,8 km/h (0 Bft)
13.01.2018 22:00 1,2 C 88 % 1020,1 hPa 0,0 l/m N 0,00 h 0 W/m 1,1 km/h (0 Bft)
13.01.2018 23:00 1,1 C 88 % 1020,0 hPa 0,0 l/m O 0,00 h 0 W/m 3,6 km/h (1 Bft)
14.01.2018 00:00 1,1 C 87 % 1019,5 hPa 0,0 l/m N 0,00 h 0 W/m 0,0 km/h (0 Bft)
14.01.2018 01:00 1,3 C 89 % 1019,2 hPa 0,0 l/m O 0,00 h 0 W/m 4,0 km/h (1 Bft)
14.01.2018 02:00 1,0 C 91 % 1019,1 hPa 0,0 l/m O 0,00 h 0 W/m 8,6 km/h (2 Bft)
14.01.2018 03:00 0,8 C 92 % 1019,0 hPa 0,0 l/m O 0,00 h 0 W/m 9,0 km/h (2 Bft)
14.01.2018 04:00 0,6 C 92 % 1018,9 hPa 0,0 l/m O 0,00 h 0 W/m 9,0 km/h (2 Bft)
14.01.2018 05:00 0,3 C 92 % 1019,1 hPa 0,0 l/m O 0,00 h 0 W/m 8,3 km/h (2 Bft)
14.01.2018 06:00 0,2 C 92 % 1019,2 hPa 0,0 l/m N 0,00 h 0 W/m 5,3 km/h (1 Bft)
14.01.2018 07:00 0,1 C 92 % 1019,4 hPa 0,0 l/m N 0,00 h 0 W/m 4,8 km/h (1 Bft)
14.01.2018 08:00 -0,0 C 92 % 1019,7 hPa 0,0 l/m N 0,00 h 10 W/m 4,8 km/h (1 Bft)
14.01.2018 09:00 -0,0 C 92 % 1020,2 hPa 0,0 l/m N 0,00 h 25 W/m 4,8 km/h (1 Bft)
14.01.2018 10:00 0,1 C 91 % 1020,6 hPa 0,0 l/m N 0,00 h 39 W/m 4,8 km/h (1 Bft)
14.01.2018 11:00 0,2 C 90 % 1020,7 hPa 0,0 l/m N 0,00 h 50 W/m 4,8 km/h (1 Bft)
14.01.2018 12:00 0,4 C 88 % 1020,1 hPa 0,0 l/m N 0,00 h 53 W/m 4,8 km/h (1 Bft)
14.01.2018 13:00 0,4 C 87 % 1019,7 hPa 0,0 l/m N 0,00 h 51 W/m 4,8 km/h (1 Bft)
14.01.2018 14:00 0,5 C 87 % 1019,7 hPa 0,0 l/m N 0,00 h 36 W/m 4,8 km/h (1 Bft)
14.01.2018 15:00 0,5 C 87 % 1020,1 hPa 0,0 l/m N 0,00 h 22 W/m 4,8 km/h (1 Bft)
14.01.2018 16:00 0,3 C 87 % 1020,6 hPa 0,0 l/m N 0,00 h 8 W/m 4,8 km/h (1 Bft)
14.01.2018 17:00 0,2 C 87 % 1021,0 hPa 0,0 l/m N 0,00 h 0 W/m 4,8 km/h (1 Bft)
14.01.2018 18:00 0,1 C 87 % 1021,1 hPa 0,0 l/m N 0,00 h 0 W/m 4,8 km/h (1 Bft)
14.01.2018 19:00 -0,0 C 87 % 1021,5 hPa 0,0 l/m N 0,00 h 0 W/m 4,8 km/h (1 Bft)
14.01.2018 20:00 -0,1 C 87 % 1021,6 hPa 0,0 l/m N 0,00 h 0 W/m 4,8 km/h (1 Bft)
14.01.2018 21:00 -0,2 C 87 % 1021,8 hPa 0,0 l/m O-NO 0,00 h 0 W/m 5,5 km/h (1 Bft)
14.01.2018 22:00 -0,2 C 87 % 1021,9 hPa 0,0 l/m SW 0,00 h 0 W/m 6,6 km/h (2 Bft)
14.01.2018 23:00 -0,3 C 88 % 1022,0 hPa 0,0 l/m SW 0,00 h 0 W/m 7,4 km/h (2 Bft)
Min-Datum _ 11.01.18 09.01.18 09.01.18 - - - - 09.01.18
_ Min-Zeit 05:30 14:55 14:25 - - - - 04:50
Minimum _ -0,4 C 58 % 1009,4 hPa - - - - 0,0 km/h (0 Bft)
Max-Datum _ 09.01.18 10.01.18 12.01.18 10.01.18 - 08.01.18 09.01.18 09.01.18
_ Max-Zeit 14:10 09:40 22:35 10:10 - 10:55 12:25 14:10
Maximum _ 10,8 C 98 % 1024,3 hPa 0,2 l/m - 0,08 h 343 W/m 27,4 km/h
SW (4 Bft)
Durchschnitt _ 2,7 C 92 % 1017,2 hPa #0,2 l/m O-NO #15:45 h 90 W/m 6,1 km/h (2 Bft)